createdAt,value
2018-08-13T00:00:53.415Z,24.80
2018-08-13T00:03:21.770Z,24.80
2018-08-13T00:05:50.136Z,24.70
2018-08-13T00:08:18.683Z,24.70
2018-08-13T00:10:47.394Z,24.70
2018-08-13T00:13:16.318Z,24.70
2018-08-13T00:15:45.187Z,24.60
2018-08-13T00:18:13.793Z,24.60
2018-08-13T00:20:42.212Z,24.60
2018-08-13T00:23:10.603Z,24.60
2018-08-13T00:25:39.138Z,24.60
2018-08-13T00:28:08.654Z,24.60
2018-08-13T00:30:37.041Z,24.60
2018-08-13T00:33:06.966Z,24.50
2018-08-13T00:35:35.337Z,24.50
2018-08-13T00:38:03.763Z,24.50
2018-08-13T00:40:32.219Z,24.40
2018-08-13T00:43:00.629Z,24.50
2018-08-13T00:45:29.026Z,24.40
2018-08-13T00:47:57.574Z,24.40
2018-08-13T00:50:25.974Z,24.40
2018-08-13T00:52:54.387Z,24.40
2018-08-13T00:55:23.040Z,24.50
2018-08-13T00:57:51.394Z,24.40
2018-08-13T01:00:20.959Z,24.40
2018-08-13T01:02:49.891Z,24.40
2018-08-13T01:05:19.235Z,24.40
2018-08-13T01:07:47.574Z,24.40
2018-08-13T01:10:18.598Z,24.40
2018-08-13T01:12:47.016Z,24.40
2018-08-13T01:15:16.778Z,24.30
2018-08-13T01:17:46.912Z,24.30
2018-08-13T01:20:18.271Z,24.20
2018-08-13T01:22:46.658Z,24.20
2018-08-13T01:25:16.463Z,24.10
2018-08-13T01:27:45.064Z,24.10
2018-08-13T01:30:14.894Z,24.10
2018-08-13T01:32:43.260Z,24.10
2018-08-13T01:35:11.631Z,24.00
2018-08-13T01:37:40.143Z,24.00
2018-08-13T01:40:09.892Z,24.00
2018-08-13T01:42:38.579Z,24.00
2018-08-13T01:45:08.703Z,24.00
2018-08-13T01:47:37.368Z,23.90
2018-08-13T01:50:07.531Z,23.90
2018-08-13T01:52:35.806Z,23.90
2018-08-13T01:55:04.965Z,23.90
2018-08-13T01:57:33.394Z,23.80
2018-08-13T02:00:01.805Z,23.80
2018-08-13T02:02:30.152Z,23.80
2018-08-13T02:04:58.473Z,23.80
2018-08-13T02:07:26.827Z,23.80
2018-08-13T02:09:55.190Z,23.80
2018-08-13T02:12:23.555Z,23.70
2018-08-13T02:14:51.878Z,23.80
2018-08-13T02:17:20.224Z,23.80
2018-08-13T02:19:48.578Z,23.80
2018-08-13T02:22:16.996Z,23.70
2018-08-13T02:24:45.344Z,23.70
2018-08-13T02:27:13.701Z,23.70
2018-08-13T02:29:42.010Z,23.70
2018-08-13T02:32:10.572Z,23.70
2018-08-13T02:34:38.955Z,23.70
2018-08-13T02:37:07.486Z,23.60
2018-08-13T02:39:35.879Z,23.60
2018-08-13T02:42:04.240Z,23.70
2018-08-13T02:44:32.604Z,23.70
2018-08-13T02:47:00.945Z,23.70
2018-08-13T02:49:29.402Z,23.60
2018-08-13T02:51:57.696Z,23.60
2018-08-13T02:54:26.033Z,23.60
2018-08-13T02:56:54.403Z,23.60
2018-08-13T02:59:22.788Z,23.60
2018-08-13T03:01:51.115Z,23.60
2018-08-13T03:04:19.487Z,23.60
2018-08-13T03:06:47.890Z,23.60
2018-08-13T03:09:16.330Z,23.60
2018-08-13T03:11:44.784Z,23.50
2018-08-13T03:14:13.120Z,23.50
2018-08-13T03:16:41.444Z,23.50
2018-08-13T03:19:09.834Z,23.50
2018-08-13T03:21:38.348Z,23.50
2018-08-13T03:24:06.988Z,23.50
2018-08-13T03:26:35.369Z,23.50
2018-08-13T03:29:03.841Z,23.40
2018-08-13T03:31:32.168Z,23.40
2018-08-13T03:34:00.508Z,23.40
2018-08-13T03:36:28.840Z,23.40
2018-08-13T03:38:57.303Z,23.50
2018-08-13T03:41:25.657Z,23.40
2018-08-13T03:43:53.992Z,23.40
2018-08-13T03:46:22.384Z,23.40
2018-08-13T03:48:50.849Z,23.40
2018-08-13T03:51:19.348Z,23.40
2018-08-13T03:53:47.691Z,23.40
2018-08-13T03:56:16.072Z,23.40
2018-08-13T03:58:44.364Z,23.40
2018-08-13T04:01:12.693Z,23.40
2018-08-13T04:03:41.006Z,23.30
2018-08-13T04:06:09.342Z,23.30
2018-08-13T04:08:37.657Z,23.30
2018-08-13T04:11:06.320Z,23.30
2018-08-13T04:13:34.692Z,23.30
2018-08-13T04:16:03.189Z,23.30
2018-08-13T04:18:31.544Z,23.30
2018-08-13T04:20:59.888Z,23.20
2018-08-13T04:23:28.180Z,23.30
2018-08-13T04:25:56.550Z,23.30
2018-08-13T04:28:24.899Z,23.30
2018-08-13T04:30:53.240Z,23.30
2018-08-13T04:33:21.864Z,23.30
2018-08-13T04:35:50.296Z,23.30
2018-08-13T04:38:18.778Z,23.30
2018-08-13T04:40:47.168Z,23.20
2018-08-13T04:43:15.721Z,23.20
2018-08-13T04:45:44.048Z,23.20
2018-08-13T04:48:12.368Z,23.30
2018-08-13T04:50:40.676Z,23.40
2018-08-13T04:53:08.987Z,23.40
2018-08-13T04:55:37.340Z,23.40
2018-08-13T04:58:05.737Z,23.40
2018-08-13T05:00:34.092Z,23.40
2018-08-13T05:03:02.415Z,23.40
2018-08-13T05:05:30.743Z,23.40
2018-08-13T05:07:59.045Z,23.40
2018-08-13T05:10:27.344Z,23.40
2018-08-13T05:12:55.767Z,23.40
2018-08-13T05:15:24.120Z,23.30
2018-08-13T05:17:52.476Z,23.30
2018-08-13T05:20:21.122Z,23.30
2018-08-13T05:22:49.571Z,23.30
2018-08-13T05:25:17.932Z,23.30
2018-08-13T05:27:46.280Z,23.40
2018-08-13T05:30:14.663Z,23.40
2018-08-13T05:32:42.997Z,23.50
2018-08-13T05:35:18.106Z,23.50
2018-08-13T05:37:46.552Z,23.60
2018-08-13T05:40:14.983Z,23.70
2018-08-13T05:42:43.293Z,23.80
2018-08-13T05:45:11.647Z,23.90
2018-08-13T05:47:40.278Z,24.00
2018-08-13T05:50:10.407Z,24.20
2018-08-13T05:52:38.804Z,24.30
2018-08-13T05:55:07.855Z,24.30
2018-08-13T05:57:36.293Z,24.40
2018-08-13T06:00:07.896Z,24.40
2018-08-13T06:02:36.703Z,24.40
2018-08-13T06:05:05.082Z,24.40
2018-08-13T06:07:33.453Z,24.40
2018-08-13T06:10:01.849Z,24.30
2018-08-13T06:12:30.228Z,24.30
2018-08-13T06:14:58.573Z,24.30
2018-08-13T06:17:26.929Z,24.40
2018-08-13T06:19:55.444Z,24.40
2018-08-13T06:22:23.944Z,24.60
2018-08-13T06:24:52.408Z,24.70
2018-08-13T06:27:20.880Z,24.80
2018-08-13T06:29:49.176Z,25.00
2018-08-13T06:32:17.528Z,25.10
2018-08-13T06:34:45.870Z,25.30
2018-08-13T06:37:14.405Z,25.40
2018-08-13T06:39:42.768Z,25.50
2018-08-13T06:42:11.093Z,25.60
2018-08-13T06:44:39.409Z,25.60
2018-08-13T06:47:07.887Z,25.70
2018-08-13T06:49:36.237Z,25.80
2018-08-13T06:52:04.831Z,25.80
2018-08-13T06:54:33.197Z,25.90
2018-08-13T06:57:01.767Z,25.90
2018-08-13T06:59:30.307Z,26.00
2018-08-13T07:01:58.724Z,26.00
2018-08-13T07:04:27.259Z,26.00
2018-08-13T07:06:55.627Z,26.10
2018-08-13T07:09:23.968Z,26.10
2018-08-13T07:11:52.317Z,26.00
2018-08-13T07:14:20.599Z,26.00
2018-08-13T07:16:49.016Z,26.00
2018-08-13T07:19:17.339Z,26.00
2018-08-13T07:21:45.647Z,26.00
2018-08-13T07:24:14.041Z,26.00
2018-08-13T07:26:42.532Z,26.00
2018-08-13T07:29:10.843Z,26.00
2018-08-13T07:31:39.324Z,26.10
2018-08-13T07:34:07.792Z,26.10
2018-08-13T07:36:36.247Z,26.10
2018-08-13T07:39:07.874Z,26.10
2018-08-13T07:41:36.178Z,26.10
2018-08-13T07:44:05.100Z,26.10
2018-08-13T07:46:33.566Z,26.10
2018-08-13T07:49:02.036Z,26.10
2018-08-13T07:51:30.689Z,26.20
2018-08-13T07:53:59.666Z,26.20
2018-08-13T07:56:28.051Z,26.20
2018-08-13T07:58:56.406Z,26.20
2018-08-13T08:01:24.732Z,26.20
2018-08-13T08:03:53.087Z,26.20
2018-08-13T08:06:21.778Z,26.20
2018-08-13T08:08:50.352Z,26.20
2018-08-13T08:11:18.861Z,26.20
2018-08-13T08:13:47.429Z,26.20
2018-08-13T08:16:15.886Z,26.20
2018-08-13T08:18:44.495Z,26.20
2018-08-13T08:21:13.099Z,26.30
2018-08-13T08:23:41.702Z,26.30
2018-08-13T08:26:10.123Z,26.30
2018-08-13T08:28:38.565Z,26.40
2018-08-13T08:31:06.925Z,26.40
2018-08-13T08:33:35.308Z,26.50
2018-08-13T08:36:03.826Z,26.50
2018-08-13T08:38:32.192Z,26.50
2018-08-13T08:41:00.639Z,26.60
2018-08-13T08:43:28.995Z,26.70
2018-08-13T08:45:57.449Z,26.70
2018-08-13T08:48:26.141Z,26.70
2018-08-13T08:50:54.506Z,26.70
2018-08-13T08:53:22.876Z,26.80
2018-08-13T08:55:51.307Z,26.70
2018-08-13T08:58:19.759Z,26.80
2018-08-13T09:00:48.170Z,26.80
2018-08-13T09:03:16.773Z,26.80
2018-08-13T09:05:45.262Z,26.80
2018-08-13T09:08:13.896Z,26.80
2018-08-13T09:10:42.343Z,26.90
2018-08-13T09:13:10.695Z,26.90
2018-08-13T09:15:39.101Z,26.90
2018-08-13T09:18:18.663Z,27.00
2018-08-13T09:20:58.227Z,26.90
2018-08-13T09:23:38.057Z,26.90
2018-08-13T09:26:17.786Z,26.90
2018-08-13T09:28:57.591Z,26.90
2018-08-13T09:31:37.315Z,26.90
2018-08-13T09:34:17.116Z,26.90
2018-08-13T09:36:45.562Z,27.00
2018-08-13T09:39:13.929Z,27.00
2018-08-13T09:41:42.556Z,27.00
2018-08-13T09:44:10.906Z,27.00
2018-08-13T09:46:40.136Z,27.00
2018-08-13T09:49:08.968Z,27.10
2018-08-13T09:51:37.273Z,27.10
2018-08-13T09:54:05.665Z,27.10
2018-08-13T09:56:34.006Z,27.10
2018-08-13T09:59:04.975Z,27.10
2018-08-13T10:01:33.682Z,27.20
2018-08-13T10:04:02.014Z,27.20
2018-08-13T10:06:30.605Z,27.20
2018-08-13T10:08:59.255Z,27.30
2018-08-13T10:11:27.750Z,27.40
2018-08-13T10:13:56.440Z,27.40
2018-08-13T10:16:25.036Z,27.40
2018-08-13T10:18:53.754Z,27.50
2018-08-13T10:21:22.300Z,27.50
2018-08-13T10:23:50.732Z,27.50
2018-08-13T10:26:19.372Z,27.50
2018-08-13T10:28:47.899Z,27.50
2018-08-13T10:31:17.138Z,27.50
2018-08-13T10:33:46.459Z,27.50
2018-08-13T10:36:14.896Z,27.50
2018-08-13T10:38:43.786Z,27.50
2018-08-13T10:41:12.143Z,27.50
2018-08-13T10:43:40.636Z,27.50
2018-08-13T10:46:09.215Z,27.50
2018-08-13T10:48:38.246Z,27.50
2018-08-13T10:51:06.845Z,27.50
2018-08-13T10:53:35.337Z,27.50
2018-08-13T10:56:03.812Z,27.50
2018-08-13T10:58:32.209Z,27.50
2018-08-13T11:01:00.620Z,27.60
2018-08-13T11:03:28.896Z,27.60
2018-08-13T11:05:57.184Z,27.60
2018-08-13T11:08:25.514Z,27.70
2018-08-13T11:10:54.021Z,27.70
2018-08-13T11:13:22.374Z,27.70
2018-08-13T11:15:50.725Z,27.70
2018-08-13T11:18:19.057Z,27.70
2018-08-13T11:20:47.380Z,27.70
2018-08-13T11:23:15.737Z,27.70
2018-08-13T11:25:44.119Z,27.70
2018-08-13T11:28:12.481Z,27.70
2018-08-13T11:30:40.820Z,27.70
2018-08-13T11:33:09.128Z,27.70
2018-08-13T11:35:37.668Z,27.70
2018-08-13T11:38:06.094Z,27.70
2018-08-13T11:40:34.557Z,27.70
2018-08-13T11:43:02.892Z,27.70
2018-08-13T11:45:31.310Z,27.70
2018-08-13T11:47:59.636Z,27.70
2018-08-13T11:50:27.955Z,27.80
2018-08-13T11:52:56.293Z,27.80
2018-08-13T11:55:24.712Z,27.90
2018-08-13T11:57:53.157Z,28.00
2018-08-13T12:00:21.556Z,28.10
2018-08-13T12:02:50.033Z,28.30
2018-08-13T12:05:18.564Z,28.40
2018-08-13T12:07:46.944Z,28.50
2018-08-13T12:10:15.763Z,28.50
2018-08-13T12:12:45.297Z,28.50
2018-08-13T12:15:14.498Z,28.50
2018-08-13T12:17:43.263Z,28.50
2018-08-13T12:20:13.878Z,28.40
2018-08-13T12:22:42.725Z,28.30
2018-08-13T12:25:29.644Z,28.30
2018-08-13T12:27:58.072Z,28.20
2018-08-13T12:30:26.839Z,28.10
2018-08-13T12:32:55.659Z,28.00
2018-08-13T12:35:24.023Z,28.00
2018-08-13T12:37:52.560Z,28.00
2018-08-13T12:40:21.410Z,27.90
2018-08-13T12:42:50.015Z,28.00
2018-08-13T12:45:19.050Z,28.00
2018-08-13T12:47:47.581Z,28.00
2018-08-13T12:50:17.696Z,28.00
2018-08-13T12:52:47.503Z,28.10
2018-08-13T12:55:16.187Z,28.10
2018-08-13T12:57:44.755Z,28.10
2018-08-13T13:00:14.736Z,28.20
2018-08-13T13:02:43.595Z,28.20
2018-08-13T13:05:13.541Z,28.30
2018-08-13T13:07:42.260Z,28.30
2018-08-13T13:10:12.919Z,28.30
2018-08-13T13:12:41.794Z,28.30
2018-08-13T13:15:14.788Z,28.30
2018-08-13T13:17:43.263Z,28.30
2018-08-13T13:20:14.013Z,28.30
2018-08-13T13:22:42.811Z,28.30
2018-08-13T13:25:11.203Z,28.40
2018-08-13T13:27:39.711Z,28.40
2018-08-13T13:30:10.772Z,28.50
2018-08-13T13:32:39.227Z,28.90
2018-08-13T13:35:09.198Z,29.30
2018-08-13T13:37:37.876Z,30.30
2018-08-13T13:40:10.702Z,31.30
2018-08-13T13:42:39.492Z,32.40
2018-08-13T13:45:08.782Z,33.40
2018-08-13T13:47:37.302Z,34.30
2018-08-13T13:50:06.376Z,35.30
2018-08-13T13:52:34.784Z,36.00
2018-08-13T13:55:03.389Z,36.80
2018-08-13T13:57:31.973Z,37.50
2018-08-13T14:00:00.352Z,38.10
2018-08-13T14:02:28.679Z,38.60
2018-08-13T14:04:57.013Z,38.90
2018-08-13T14:07:25.323Z,38.70
2018-08-13T14:09:53.656Z,38.40
2018-08-13T14:12:21.987Z,38.10
2018-08-13T14:14:50.413Z,37.90
2018-08-13T14:17:18.821Z,37.60
2018-08-13T14:19:47.465Z,37.10
2018-08-13T14:22:15.887Z,36.70
2018-08-13T14:24:44.432Z,36.20
2018-08-13T14:27:12.809Z,35.80
2018-08-13T14:29:41.117Z,35.70
2018-08-13T14:32:09.559Z,35.80
2018-08-13T14:34:37.976Z,36.20
2018-08-13T14:37:06.318Z,36.60
2018-08-13T14:39:34.620Z,37.00
2018-08-13T14:42:03.280Z,37.10
2018-08-13T14:44:31.680Z,37.00
2018-08-13T14:47:00.433Z,36.70
2018-08-13T14:49:29.031Z,36.20
2018-08-13T14:51:58.143Z,35.80
2018-08-13T14:54:26.481Z,35.30
2018-08-13T14:56:54.884Z,34.80
2018-08-13T14:59:23.566Z,34.30
2018-08-13T15:01:52.011Z,33.80
2018-08-13T15:04:20.635Z,33.50
2018-08-13T15:06:49.439Z,33.00
2018-08-13T15:09:18.073Z,32.70
2018-08-13T15:11:46.519Z,32.40
2018-08-13T15:14:14.891Z,32.10
2018-08-13T15:16:43.248Z,31.80
2018-08-13T15:19:12.165Z,31.70
2018-08-13T15:21:40.613Z,31.50
2018-08-13T15:24:08.977Z,31.30
2018-08-13T15:26:37.595Z,31.20
2018-08-13T15:29:06.016Z,31.10
2018-08-13T15:31:34.353Z,31.00
2018-08-13T15:34:02.671Z,31.00
2018-08-13T15:36:31.172Z,30.90
2018-08-13T15:38:59.568Z,30.90
2018-08-13T15:41:27.911Z,31.00
2018-08-13T15:43:56.276Z,31.00
2018-08-13T15:46:24.607Z,30.90
2018-08-13T15:48:53.007Z,30.90
2018-08-13T15:51:21.599Z,30.90
2018-08-13T15:53:49.932Z,30.80
2018-08-13T15:56:18.700Z,30.80
2018-08-13T15:58:47.083Z,30.70
2018-08-13T16:01:15.407Z,30.70
2018-08-13T16:03:43.806Z,30.60
2018-08-13T16:06:12.384Z,30.60
2018-08-13T16:08:40.759Z,30.50
2018-08-13T16:11:09.080Z,30.50
2018-08-13T16:13:37.553Z,30.50
2018-08-13T16:16:05.900Z,30.40
2018-08-13T16:18:34.267Z,30.40
2018-08-13T16:21:02.611Z,30.30
2018-08-13T16:23:30.931Z,30.20
2018-08-13T16:25:59.255Z,30.20
2018-08-13T16:28:27.657Z,30.10
2018-08-13T16:30:56.394Z,30.10
2018-08-13T16:33:24.889Z,30.00
2018-08-13T16:35:53.388Z,29.90
2018-08-13T16:38:22.059Z,29.90
2018-08-13T16:40:50.761Z,29.90
2018-08-13T16:43:19.242Z,29.80
2018-08-13T16:45:47.698Z,29.80
2018-08-13T16:48:16.208Z,29.60
2018-08-13T16:50:44.529Z,29.30
2018-08-13T16:53:13.233Z,28.90
2018-08-13T16:55:41.683Z,28.50
2018-08-13T16:58:10.545Z,28.10
2018-08-13T17:00:38.869Z,27.80
2018-08-13T17:03:07.318Z,27.60
2018-08-13T17:05:35.765Z,27.40
2018-08-13T17:08:04.444Z,27.20
2018-08-13T17:10:32.858Z,27.00
2018-08-13T17:13:01.195Z,26.80
2018-08-13T17:15:31.055Z,26.60
2018-08-13T17:18:01.076Z,26.50
2018-08-13T17:20:34.715Z,26.30
2018-08-13T17:23:03.108Z,26.20
2018-08-13T17:25:31.432Z,26.10
2018-08-13T17:28:00.273Z,26.10
2018-08-13T17:30:28.667Z,26.00
2018-08-13T17:32:58.495Z,25.90
2018-08-13T17:35:28.882Z,25.90
2018-08-13T17:37:57.584Z,25.80
2018-08-13T17:40:26.247Z,25.70
2018-08-13T17:42:55.522Z,25.70
2018-08-13T17:45:24.225Z,25.70
2018-08-13T17:47:52.703Z,25.70
2018-08-13T17:50:21.917Z,25.60
2018-08-13T17:52:50.361Z,25.60
2018-08-13T17:55:19.074Z,25.60
2018-08-13T17:57:47.772Z,25.60
2018-08-13T18:00:19.815Z,25.60
2018-08-13T18:02:48.216Z,25.60
2018-08-13T18:05:19.838Z,25.60
2018-08-13T18:07:48.655Z,25.70
2018-08-13T18:10:28.617Z,25.70
2018-08-13T18:13:00.332Z,25.70
2018-08-13T18:15:29.722Z,25.80
2018-08-13T18:17:58.717Z,25.80
2018-08-13T18:20:27.630Z,25.80
2018-08-13T18:22:56.144Z,25.80
2018-08-13T18:25:24.597Z,25.70
2018-08-13T18:27:53.252Z,25.70
2018-08-13T18:30:23.788Z,25.70
2018-08-13T18:32:52.891Z,25.70
2018-08-13T18:35:21.248Z,25.70
2018-08-13T18:37:49.671Z,25.70
2018-08-13T18:40:21.419Z,25.60
2018-08-13T18:42:49.871Z,25.60
2018-08-13T18:45:18.282Z,25.60
2018-08-13T18:47:47.185Z,25.70
2018-08-13T18:50:16.954Z,25.70
2018-08-13T18:52:46.068Z,25.80
2018-08-13T18:55:17.075Z,25.90
2018-08-13T18:57:45.900Z,25.90
2018-08-13T19:00:32.788Z,25.90
2018-08-13T19:03:02.021Z,26.00
2018-08-13T19:05:30.555Z,26.00
2018-08-13T19:07:59.334Z,26.00
2018-08-13T19:10:27.728Z,26.00
2018-08-13T19:12:56.130Z,25.90
2018-08-13T19:15:26.719Z,25.90
2018-08-13T19:17:59.956Z,25.80
2018-08-13T19:20:34.409Z,25.70
2018-08-13T19:23:07.947Z,25.60
2018-08-13T19:25:41.785Z,25.50
2018-08-13T19:28:14.057Z,25.40
2018-08-13T19:30:45.364Z,25.40
2018-08-13T19:33:20.008Z,25.30
2018-08-13T19:35:54.618Z,25.20
2018-08-13T19:38:29.172Z,25.20
2018-08-13T19:41:07.073Z,25.10
2018-08-13T19:43:37.135Z,25.00
2018-08-13T19:46:11.551Z,25.00
2018-08-13T19:48:45.249Z,24.90
2018-08-13T19:51:14.872Z,25.00
2018-08-13T19:53:44.641Z,24.90
2018-08-13T19:56:13.582Z,24.90
2018-08-13T19:58:43.207Z,24.90
2018-08-13T20:01:11.770Z,24.80
2018-08-13T20:03:45.153Z,24.90
2018-08-13T20:06:13.689Z,24.90
2018-08-13T20:08:48.008Z,24.80
2018-08-13T20:11:30.405Z,24.80
2018-08-13T20:14:02.488Z,24.80
2018-08-13T20:16:32.685Z,24.70
2018-08-13T20:19:04.236Z,24.70
2018-08-13T20:21:36.500Z,24.70
2018-08-13T20:24:12.000Z,24.60
2018-08-13T20:26:45.233Z,24.70
2018-08-13T20:29:13.683Z,24.70
2018-08-13T20:31:42.578Z,24.70
2018-08-13T20:34:11.138Z,24.70
2018-08-13T20:36:40.344Z,24.70
2018-08-13T20:39:11.887Z,24.70
2018-08-13T20:41:40.600Z,24.70
2018-08-13T20:44:09.382Z,24.70
2018-08-13T20:46:38.000Z,24.70
2018-08-13T20:49:06.989Z,24.70
2018-08-13T20:51:35.695Z,24.70
2018-08-13T20:54:04.601Z,24.70
2018-08-13T20:56:33.206Z,24.70
2018-08-13T20:59:01.601Z,24.70
2018-08-13T21:01:30.025Z,24.70
2018-08-13T21:03:58.539Z,24.70
2018-08-13T21:06:27.146Z,24.60
2018-08-13T21:08:55.724Z,24.40
2018-08-13T21:11:24.341Z,24.40
2018-08-13T21:13:52.948Z,24.40
2018-08-13T21:16:21.356Z,24.40
2018-08-13T21:18:49.858Z,24.30
2018-08-13T21:21:18.315Z,24.40
2018-08-13T21:23:46.736Z,24.30
2018-08-13T21:26:15.112Z,24.40
2018-08-13T21:28:43.922Z,24.40
2018-08-13T21:31:12.347Z,24.40
2018-08-13T21:33:40.700Z,24.40
2018-08-13T21:36:09.342Z,24.30
2018-08-13T21:38:38.005Z,24.30
2018-08-13T21:41:06.696Z,24.20
2018-08-13T21:43:35.033Z,24.20
2018-08-13T21:46:03.773Z,24.20
2018-08-13T21:48:32.257Z,24.20
2018-08-13T21:51:00.864Z,24.10
2018-08-13T21:53:29.239Z,24.10
2018-08-13T21:55:57.580Z,24.00
2018-08-13T21:58:25.918Z,24.00
2018-08-13T22:00:59.839Z,24.00
2018-08-13T22:03:28.263Z,23.90
2018-08-13T22:05:56.560Z,23.90
2018-08-13T22:08:24.920Z,23.90
2018-08-13T22:10:53.229Z,23.80
2018-08-13T22:13:21.552Z,23.70
2018-08-13T22:15:49.903Z,23.70
2018-08-13T22:18:18.405Z,23.70
2018-08-13T22:20:46.844Z,23.80
2018-08-13T22:23:15.284Z,23.80
2018-08-13T22:25:44.983Z,23.80
2018-08-13T22:28:15.896Z,23.80
2018-08-13T22:30:45.150Z,23.80
2018-08-13T22:33:13.634Z,23.70
2018-08-13T22:35:42.897Z,23.70
2018-08-13T22:38:11.318Z,23.70
2018-08-13T22:40:40.352Z,23.70
2018-08-13T22:43:09.045Z,23.70
2018-08-13T22:45:37.275Z,23.70
2018-08-13T22:48:06.350Z,23.70
2018-08-13T22:50:34.687Z,23.70
2018-08-13T22:53:03.120Z,23.70
2018-08-13T22:55:31.440Z,23.60
2018-08-13T22:57:59.779Z,23.60
2018-08-13T23:00:28.105Z,23.50
2018-08-13T23:02:56.488Z,23.50
2018-08-13T23:05:26.170Z,23.50
2018-08-13T23:07:54.590Z,23.40
2018-08-13T23:10:24.321Z,23.40
2018-08-13T23:12:53.876Z,23.40
2018-08-13T23:15:22.410Z,23.30
2018-08-13T23:17:51.363Z,23.30
2018-08-13T23:20:21.262Z,23.20
2018-08-13T23:22:53.243Z,23.20
2018-08-13T23:25:21.737Z,23.20
2018-08-13T23:27:51.259Z,23.20
2018-08-13T23:30:19.770Z,23.20
2018-08-13T23:32:50.306Z,23.20
2018-08-13T23:35:19.477Z,23.10
2018-08-13T23:37:47.962Z,23.10
2018-08-13T23:40:16.288Z,23.10
2018-08-13T23:42:44.725Z,23.00
2018-08-13T23:45:15.334Z,23.00
2018-08-13T23:47:43.940Z,23.00
2018-08-13T23:50:16.948Z,22.90
2018-08-13T23:52:45.421Z,22.90
2018-08-13T23:55:20.144Z,22.90
2018-08-13T23:57:48.626Z,22.90
